Uniao, Brazil
Current Conditions -  °F | °C
As of 8:00 AM on Thursday 27 Nov 2014 (Local Time) from SBTE Reporting Station
Clear Clear  
Wind Chill: 84°   Ceiling: Unl
Heat Index: 86°   Visibility: 6mi
Dew Point: 66°   Wind: 8mph
Humidity: 55%   Direction: 80°E
Pressure: 29.88"   Gusts: NA
Location:  4.59°S, 42.86°W
Report Text: SBTE 271100Z 08007KT CAVOK 29/19 Q1012
Loading
Personal Weather Stations






























Interactive Weather Map New forecast layout! Learn more

10-Day Weather Forecast

Advertisements
Track Severe Weather on mobile